Tampa, Florida
Traffic Map
Current Weather Conditions
Tampa, Florida
Few Clouds
Few Clouds
21°
Feels Like: 21°
Wind Chill: 21° Ceiling: Unl
Heat Index: 21° Visibility: 10mi
Dew Point: 19° Wind: 7mph
Humidity: 93% Direction: 160° (SSE)
Pressure: 29.94in Gusts: 0mph
Raw Report DataKTPA 190415Z 16006KT 10SM FEW005 21/19 A2994 RMK AO2 T02060194
Traffic Incident Summary
Active as of:
Severity:
Category:
InformationThere was an issue retrieving the traffic information for this location. Please try a different location or try again shortly.
Advertisements
At Last! Intellicast now available for iPhone and Android